Labelle, Canada
Current Conditions -  °F | °C
As of 2:00 PM on Thursday 30 Oct 2014 (Local Time) from CYMX Reporting Station
Broken Clouds Broken Clouds  
Wind Chill: 39°   Ceiling: 4500
Heat Index: 45°   Visibility: 45mi
Dew Point: 30°   Wind: 10mph
Humidity: 57%   Direction: 270°W
Pressure: 29.97"   Gusts: NA
Location:  46.28°N, 74.73°W
Report Text: CYMX 301800Z 27009KT 230V300 45SM BKN045 BKN210 07/M01 A2997 RMK SC6CI1 SLP150
Loading
Personal Weather Stations






























Interactive Weather Map
Tropical Storm Tracking
New forecast layout! Learn more

10-Day Weather Forecast

Advertisements
Track Severe Weather on mobile